Quick Links (Output Below):   Max & Min Temps   /   Climate Reports   /   Zone Forecasts
River Forecasts   /   Forestry Forecasts   /   Aviation Forecasts   /   Radars   /   Features

Terminal Aerodrome Forecast (Fort Smith)

Pick a Site:
Arkadelphia | El Dorado | Fayetteville | Fort Smith | Harrison | Highfill | Hot Springs | Jonesboro
Little Rock | Monticello | Mountain Home | Pine Bluff | Texarkana
 Forecast 

KFSM 291737Z 2918/3018 08010KT P6SM SKC
     FM292100 24009KT P6SM BKN150
     FM300000 34007KT P6SM BKN070
     FM300400 03005KT P6SM SCT120=


 Latest METARs (Observations) 
How to Decode METARs
20Z KFSM 291953Z 06008KT 10SM CLR 19/07 A3000 RMK AO2 SLP157
         T01940067
         
19Z KFSM 291853Z 07010KT 10SM CLR 18/06 A3002 RMK AO2 SLP165
         T01780061
         
18Z KFSM 291753Z 04011KT 10SM CLR 17/06 A3005 RMK AO2 SLP174 T01670056
         10167 20033 55010
         
17Z KFSM 291653Z 07011KT 10SM CLR 15/04 A3004 RMK AO2 SLP171
         T01500044
         
16Z KFSM 291553Z 07011KT 10SM CLR 12/03 A3007 RMK AO2 SLP184
         T01170033
         
15Z KFSM 291453Z 07013KT 10SM CLR 08/02 A3008 RMK AO2 SLP185 T00830017
         58012
         
14Z KFSM 291353Z 08012KT 10SM CLR 06/01 A3009 RMK AO2 SLP191
         T00610011
         
13Z KFSM 291253Z 08011KT 10SM CLR 04/01 A3011 RMK AO2 SLP196
         T00390006
         
12Z KFSM 291153Z 07013KT 10SM CLR 03/01 A3011 RMK AO2 SLP197 T00330006
         10056 20033 56012
         
11Z KFSM 291053Z 08011G18KT 10SM CLR 03/01 A3011 RMK AO2 SLP198
         T00330006
         
***** Today's Observations (Above) *****


Back to Main Page
http://www.srh.noaa.gov/lzk/qfcst.php

USA.gov is the U.S. government's official web portal to all federal, state and local government web resources and services.